VJC476 VVTS-VVDN
Flight info
| Callsign | VJC476 |
|---|---|
| Flight time | 1h 2m |
| Altitude | 35000 |
| Route | PATMA5Q PATMA Q2 LATOM LATOM2K |
| Aircraft | A21N/M-SDE3FGHIRWY/LB1 |
Departure
| Time | 2026-04-17 05:31 |
|---|---|
| Airport | Tan Son Nhat International Airport (VVTS) |
Arrival
| Time | 2026-04-17 06:33 |
|---|---|
| Airport | Da Nang International Airport (VVDN) |
| Time | Latitude | Longitude | Altitude | Speed | Heading |
|---|---|---|---|---|---|
| 2026-04-17 05:28 | 10.82058 | 106.66593 | 30 ft | 13 kts | 70° |
| 2026-04-17 05:28 | 10.82090 | 106.66678 | 30 ft | 13 kts | 68° |
| 2026-04-17 05:28 | 10.82112 | 106.66733 | 32 ft | 12 kts | 68° |
| 2026-04-17 05:28 | 10.82142 | 106.66814 | 32 ft | 12 kts | 70° |
| 2026-04-17 05:29 | 10.82173 | 106.66894 | 33 ft | 11 kts | 69° |
| 2026-04-17 05:29 | 10.82201 | 106.66969 | 34 ft | 10 kts | 69° |
| 2026-04-17 05:29 | 10.82250 | 106.67008 | 35 ft | 9 kts | 350° |
| 2026-04-17 05:29 | 10.82317 | 106.66977 | 34 ft | 11 kts | 324° |
| 2026-04-17 05:30 | 10.82360 | 106.66918 | 34 ft | 11 kts | 257° |
| 2026-04-17 05:30 | 10.82323 | 106.66821 | 32 ft | 29 kts | 248° |
| 2026-04-17 05:30 | 10.82157 | 106.66387 | 32 ft | 100 kts | 250° |
| 2026-04-17 05:30 | 10.81831 | 106.65522 | 29 ft | 158 kts | 250° |
| 2026-04-17 05:31 | 10.81417 | 106.64388 | 378 ft | 173 kts | 248° |
| 2026-04-17 05:31 | 10.80990 | 106.63234 | 903 ft | 178 kts | 247° |
| 2026-04-17 05:31 | 10.80552 | 106.62070 | 1487 ft | 181 kts | 248° |
| 2026-04-17 05:31 | 10.80098 | 106.60875 | 1943 ft | 181 kts | 247° |
| 2026-04-17 05:32 | 10.79629 | 106.59641 | 2158 ft | 192 kts | 247° |
| 2026-04-17 05:32 | 10.79135 | 106.58330 | 2375 ft | 203 kts | 247° |
| 2026-04-17 05:32 | 10.78608 | 106.56933 | 2565 ft | 217 kts | 248° |
| 2026-04-17 05:32 | 10.78193 | 106.55421 | 2782 ft | 231 kts | 268° |
| 2026-04-17 05:33 | 10.78690 | 106.53819 | 2937 ft | 248 kts | 310° |
| 2026-04-17 05:33 | 10.80118 | 106.52825 | 3182 ft | 257 kts | 347° |
| 2026-04-17 05:33 | 10.81907 | 106.52791 | 3480 ft | 266 kts | 12° |
| 2026-04-17 05:33 | 10.83775 | 106.53114 | 3980 ft | 271 kts | 9° |
| 2026-04-17 05:34 | 10.85643 | 106.53332 | 4595 ft | 272 kts | 7° |
| 2026-04-17 05:34 | 10.87531 | 106.53527 | 5221 ft | 273 kts | 7° |
| 2026-04-17 05:34 | 10.89428 | 106.53718 | 5827 ft | 275 kts | 7° |
| 2026-04-17 05:34 | 10.91361 | 106.53914 | 6425 ft | 277 kts | 7° |
| 2026-04-17 05:35 | 10.93269 | 106.54108 | 7019 ft | 278 kts | 7° |
| 2026-04-17 05:35 | 10.95189 | 106.54350 | 7602 ft | 279 kts | 14° |
| 2026-04-17 05:35 | 10.96932 | 106.55206 | 8172 ft | 279 kts | 41° |
| 2026-04-17 05:35 | 10.98212 | 106.56664 | 8795 ft | 278 kts | 53° |
| 2026-04-17 05:36 | 10.99351 | 106.58266 | 9347 ft | 281 kts | 54° |
| 2026-04-17 05:36 | 11.00514 | 106.59880 | 9878 ft | 283 kts | 53° |
| 2026-04-17 05:36 | 11.01711 | 106.61493 | 10261 ft | 292 kts | 53° |
| 2026-04-17 05:36 | 11.02983 | 106.63180 | 10501 ft | 306 kts | 52° |
| 2026-04-17 05:37 | 11.04316 | 106.64931 | 10725 ft | 319 kts | 52° |
| 2026-04-17 05:37 | 11.05684 | 106.66720 | 11111 ft | 325 kts | 52° |
| 2026-04-17 05:37 | 11.07086 | 106.68549 | 11591 ft | 328 kts | 52° |
| 2026-04-17 05:37 | 11.08492 | 106.70383 | 12058 ft | 331 kts | 52° |
| 2026-04-17 05:38 | 11.09916 | 106.72242 | 12545 ft | 333 kts | 52° |
| 2026-04-17 05:38 | 11.11328 | 106.74107 | 13058 ft | 334 kts | 52° |
| 2026-04-17 05:38 | 11.12774 | 106.75982 | 13481 ft | 338 kts | 52° |
| 2026-04-17 05:38 | 11.14255 | 106.77893 | 13915 ft | 341 kts | 52° |
| 2026-04-17 05:39 | 11.15707 | 106.79777 | 14337 ft | 344 kts | 52° |
| 2026-04-17 05:39 | 11.17204 | 106.81722 | 14769 ft | 347 kts | 52° |
| 2026-04-17 05:39 | 11.18683 | 106.83649 | 15172 ft | 350 kts | 53° |
| 2026-04-17 05:39 | 11.20191 | 106.85619 | 15581 ft | 353 kts | 53° |
| 2026-04-17 05:40 | 11.21716 | 106.87613 | 15977 ft | 356 kts | 53° |
| 2026-04-17 05:40 | 11.23244 | 106.89613 | 16370 ft | 359 kts | 53° |
| 2026-04-17 05:40 | 11.24783 | 106.91629 | 16762 ft | 362 kts | 53° |
| 2026-04-17 05:40 | 11.26331 | 106.93656 | 17135 ft | 365 kts | 54° |
| 2026-04-17 05:41 | 11.27918 | 106.95735 | 17328 ft | 373 kts | 54° |
| 2026-04-17 05:41 | 11.29516 | 106.97831 | 17623 ft | 378 kts | 53° |
| 2026-04-17 05:41 | 11.31149 | 106.99970 | 17985 ft | 380 kts | 53° |
| 2026-04-17 05:41 | 11.32777 | 107.02102 | 18329 ft | 383 kts | 53° |
| 2026-04-17 05:42 | 11.34460 | 107.04237 | 18658 ft | 386 kts | 50° |
| 2026-04-17 05:42 | 11.36316 | 107.06207 | 18980 ft | 389 kts | 44° |
| 2026-04-17 05:42 | 11.38378 | 107.08000 | 19303 ft | 391 kts | 39° |
| 2026-04-17 05:42 | 11.40561 | 107.09690 | 19635 ft | 393 kts | 37° |
| 2026-04-17 05:43 | 11.42769 | 107.11366 | 19956 ft | 395 kts | 37° |
| 2026-04-17 05:43 | 11.44968 | 107.13036 | 20266 ft | 397 kts | 37° |
| 2026-04-17 05:43 | 11.47182 | 107.14719 | 20572 ft | 398 kts | 37° |
| 2026-04-17 05:43 | 11.49428 | 107.16431 | 20874 ft | 400 kts | 37° |
| 2026-04-17 05:44 | 11.51646 | 107.18122 | 21155 ft | 402 kts | 37° |
| 2026-04-17 05:44 | 11.53918 | 107.19858 | 21443 ft | 404 kts | 37° |
| 2026-04-17 05:44 | 11.56154 | 107.21568 | 21718 ft | 406 kts | 36° |
| 2026-04-17 05:44 | 11.58420 | 107.23301 | 21987 ft | 407 kts | 37° |
| 2026-04-17 05:45 | 11.60724 | 107.25062 | 22268 ft | 409 kts | 37° |
| 2026-04-17 05:45 | 11.62980 | 107.26785 | 22552 ft | 410 kts | 37° |
| 2026-04-17 05:45 | 11.65277 | 107.28542 | 22822 ft | 412 kts | 36° |
| 2026-04-17 05:45 | 11.67576 | 107.30299 | 23076 ft | 414 kts | 36° |
| 2026-04-17 05:46 | 11.69911 | 107.32086 | 23328 ft | 416 kts | 36° |
| 2026-04-17 05:46 | 11.72229 | 107.33860 | 23582 ft | 418 kts | 36° |
| 2026-04-17 05:46 | 11.74549 | 107.35635 | 23820 ft | 420 kts | 36° |
| 2026-04-17 05:46 | 11.76923 | 107.37453 | 24062 ft | 422 kts | 36° |
| 2026-04-17 05:47 | 11.79280 | 107.39257 | 24306 ft | 424 kts | 36° |
| 2026-04-17 05:47 | 11.81636 | 107.41061 | 24559 ft | 426 kts | 36° |
| 2026-04-17 05:47 | 11.84018 | 107.42888 | 24842 ft | 426 kts | 36° |
| 2026-04-17 05:47 | 11.86376 | 107.44697 | 25137 ft | 426 kts | 36° |
| 2026-04-17 05:48 | 11.88767 | 107.46530 | 25398 ft | 427 kts | 36° |
| 2026-04-17 05:48 | 11.91141 | 107.48350 | 25648 ft | 428 kts | 36° |
| 2026-04-17 05:48 | 11.93369 | 107.50060 | 25870 ft | 430 kts | 36° |
| 2026-04-17 05:48 | 11.95741 | 107.51880 | 26089 ft | 431 kts | 36° |
| 2026-04-17 05:49 | 11.98173 | 107.53746 | 26309 ft | 433 kts | 36° |
| 2026-04-17 05:49 | 12.00568 | 107.55585 | 26521 ft | 435 kts | 36° |
| 2026-04-17 05:49 | 12.03009 | 107.57458 | 26729 ft | 437 kts | 36° |
| 2026-04-17 05:49 | 12.05454 | 107.59335 | 26928 ft | 439 kts | 36° |
| 2026-04-17 05:50 | 12.07874 | 107.61194 | 27123 ft | 441 kts | 36° |
| 2026-04-17 05:50 | 12.10334 | 107.63084 | 27325 ft | 443 kts | 36° |
| 2026-04-17 05:50 | 12.12827 | 107.65000 | 27545 ft | 444 kts | 36° |
| 2026-04-17 05:50 | 12.15314 | 107.66913 | 27772 ft | 445 kts | 36° |
| 2026-04-17 05:51 | 12.17792 | 107.68819 | 27991 ft | 446 kts | 36° |
| 2026-04-17 05:51 | 12.20284 | 107.70736 | 28199 ft | 448 kts | 36° |
| 2026-04-17 05:51 | 12.22762 | 107.72643 | 28407 ft | 449 kts | 36° |
| 2026-04-17 05:51 | 12.25282 | 107.74582 | 28615 ft | 450 kts | 36° |
| 2026-04-17 05:52 | 12.27778 | 107.76502 | 28816 ft | 452 kts | 36° |
| 2026-04-17 05:52 | 12.30335 | 107.78388 | 29037 ft | 452 kts | 31° |
| 2026-04-17 05:52 | 12.33137 | 107.79851 | 29291 ft | 450 kts | 20° |
| 2026-04-17 05:52 | 12.36100 | 107.80783 | 29562 ft | 447 kts | 11° |
| 2026-04-17 05:53 | 12.39206 | 107.81190 | 29824 ft | 445 kts | 1° |
| 2026-04-17 05:53 | 12.42302 | 107.81283 | 30106 ft | 443 kts | 359° |
| 2026-04-17 05:53 | 12.45364 | 107.81328 | 30389 ft | 442 kts | 359° |
| 2026-04-17 05:53 | 12.48445 | 107.81368 | 30678 ft | 441 kts | 359° |
| 2026-04-17 05:54 | 12.51512 | 107.81414 | 30973 ft | 440 kts | 359° |
| 2026-04-17 05:54 | 12.54610 | 107.81465 | 31271 ft | 439 kts | 359° |
| 2026-04-17 05:54 | 12.57662 | 107.81519 | 31555 ft | 438 kts | 359° |
| 2026-04-17 05:54 | 12.60697 | 107.81576 | 31835 ft | 437 kts | 359° |
| 2026-04-17 05:55 | 12.63722 | 107.81634 | 32122 ft | 435 kts | 359° |
| 2026-04-17 05:55 | 12.66757 | 107.81692 | 32402 ft | 434 kts | 359° |
| 2026-04-17 05:55 | 12.69807 | 107.81754 | 32698 ft | 433 kts | 359° |
| 2026-04-17 05:55 | 12.72810 | 107.81812 | 33008 ft | 432 kts | 359° |
| 2026-04-17 05:56 | 12.75896 | 107.81873 | 33319 ft | 431 kts | 359° |
| 2026-04-17 05:56 | 12.78895 | 107.81930 | 33629 ft | 429 kts | 359° |
| 2026-04-17 05:56 | 12.81867 | 107.81988 | 33929 ft | 428 kts | 359° |
| 2026-04-17 05:56 | 12.84849 | 107.82046 | 34211 ft | 427 kts | 359° |
| 2026-04-17 05:57 | 12.87843 | 107.82104 | 34483 ft | 427 kts | 359° |
| 2026-04-17 05:57 | 12.90826 | 107.82163 | 34720 ft | 427 kts | 359° |
| 2026-04-17 05:57 | 12.93828 | 107.82222 | 34876 ft | 429 kts | 359° |
| 2026-04-17 05:57 | 12.96819 | 107.82282 | 34874 ft | 431 kts | 359° |
| 2026-04-17 05:58 | 13.02841 | 107.82400 | 34874 ft | 431 kts | 359° |
| 2026-04-17 05:59 | 13.11869 | 107.82579 | 34878 ft | 430 kts | 359° |
| 2026-04-17 05:59 | 13.17884 | 107.82698 | 34875 ft | 430 kts | 359° |
| 2026-04-17 06:00 | 13.23880 | 107.82816 | 34876 ft | 431 kts | 359° |
| 2026-04-17 06:00 | 13.29903 | 107.82934 | 34877 ft | 431 kts | 358° |
| 2026-04-17 06:01 | 13.35979 | 107.83057 | 34873 ft | 430 kts | 359° |
| 2026-04-17 06:01 | 13.41980 | 107.83186 | 34872 ft | 430 kts | 359° |
| 2026-04-17 06:02 | 13.47996 | 107.83313 | 34875 ft | 430 kts | 359° |
| 2026-04-17 06:02 | 13.54063 | 107.83440 | 34882 ft | 430 kts | 359° |
| 2026-04-17 06:03 | 13.60091 | 107.83566 | 34902 ft | 431 kts | 358° |
| 2026-04-17 06:03 | 13.66118 | 107.83692 | 34916 ft | 432 kts | 358° |
| 2026-04-17 06:04 | 13.72207 | 107.83818 | 34927 ft | 432 kts | 358° |
| 2026-04-17 06:04 | 13.78230 | 107.83942 | 34935 ft | 432 kts | 358° |
| 2026-04-17 06:05 | 13.84265 | 107.84068 | 34940 ft | 432 kts | 358° |
| 2026-04-17 06:05 | 13.90324 | 107.84193 | 34946 ft | 432 kts | 358° |
| 2026-04-17 06:06 | 13.96403 | 107.84319 | 34948 ft | 432 kts | 358° |
| 2026-04-17 06:06 | 14.02454 | 107.84399 | 34948 ft | 431 kts | 356° |
| 2026-04-17 06:07 | 14.08478 | 107.84375 | 34954 ft | 430 kts | 357° |
| 2026-04-17 06:07 | 14.14549 | 107.84383 | 34960 ft | 429 kts | 357° |
| 2026-04-17 06:08 | 14.20578 | 107.84384 | 34971 ft | 429 kts | 357° |
| 2026-04-17 06:08 | 14.26618 | 107.84386 | 34996 ft | 429 kts | 357° |
| 2026-04-17 06:09 | 14.32613 | 107.84387 | 35000 ft | 429 kts | 357° |
| 2026-04-17 06:09 | 14.38635 | 107.84385 | 34999 ft | 430 kts | 357° |
| 2026-04-17 06:10 | 14.44658 | 107.84386 | 35003 ft | 430 kts | 357° |
| 2026-04-17 06:10 | 14.50686 | 107.84386 | 34995 ft | 429 kts | 356° |
| 2026-04-17 06:11 | 14.56684 | 107.84387 | 35001 ft | 429 kts | 356° |
| 2026-04-17 06:11 | 14.62735 | 107.84386 | 34758 ft | 430 kts | 356° |
| 2026-04-17 06:11 | 14.65736 | 107.84386 | 33835 ft | 438 kts | 356° |
| 2026-04-17 06:12 | 14.68831 | 107.84387 | 32776 ft | 445 kts | 356° |
| 2026-04-17 06:12 | 14.71954 | 107.84387 | 32079 ft | 445 kts | 357° |
| 2026-04-17 06:12 | 14.75101 | 107.84387 | 31403 ft | 445 kts | 357° |
| 2026-04-17 06:12 | 14.78243 | 107.84388 | 30653 ft | 447 kts | 357° |
| 2026-04-17 06:13 | 14.81400 | 107.84390 | 29855 ft | 450 kts | 357° |
| 2026-04-17 06:13 | 14.84529 | 107.84417 | 29040 ft | 455 kts | 360° |
| 2026-04-17 06:13 | 14.87730 | 107.84757 | 28197 ft | 461 kts | 7° |
| 2026-04-17 06:13 | 14.90834 | 107.85490 | 27398 ft | 465 kts | 14° |
| 2026-04-17 06:14 | 14.93925 | 107.86563 | 26665 ft | 466 kts | 18° |
| 2026-04-17 06:14 | 14.96979 | 107.87714 | 26154 ft | 460 kts | 18° |
| 2026-04-17 06:14 | 15.00000 | 107.88871 | 25652 ft | 455 kts | 19° |
| 2026-04-17 06:14 | 15.03013 | 107.90020 | 25086 ft | 452 kts | 18° |
| 2026-04-17 06:15 | 15.05972 | 107.91143 | 24512 ft | 449 kts | 18° |
| 2026-04-17 06:15 | 15.08900 | 107.92248 | 23951 ft | 445 kts | 18° |
| 2026-04-17 06:15 | 15.11853 | 107.93359 | 23396 ft | 442 kts | 19° |
| 2026-04-17 06:15 | 15.14769 | 107.94454 | 22842 ft | 438 kts | 19° |
| 2026-04-17 06:16 | 15.17700 | 107.95557 | 22280 ft | 435 kts | 19° |
| 2026-04-17 06:16 | 15.20570 | 107.96637 | 21737 ft | 431 kts | 19° |
| 2026-04-17 06:16 | 15.23421 | 107.97710 | 21199 ft | 428 kts | 19° |
| 2026-04-17 06:16 | 15.26239 | 107.98771 | 20647 ft | 425 kts | 19° |
| 2026-04-17 06:17 | 15.29027 | 107.99821 | 20119 ft | 422 kts | 19° |
| 2026-04-17 06:17 | 15.31813 | 108.00868 | 19547 ft | 420 kts | 19° |
| 2026-04-17 06:17 | 15.34556 | 108.01900 | 18956 ft | 419 kts | 19° |
| 2026-04-17 06:17 | 15.37340 | 108.02948 | 18432 ft | 416 kts | 19° |
| 2026-04-17 06:18 | 15.40059 | 108.03909 | 17913 ft | 412 kts | 14° |
| 2026-04-17 06:18 | 15.42872 | 108.04358 | 17419 ft | 406 kts | 1° |
| 2026-04-17 06:18 | 15.45668 | 108.04221 | 16955 ft | 400 kts | 352° |
| 2026-04-17 06:18 | 15.48470 | 108.03818 | 16459 ft | 397 kts | 350° |
| 2026-04-17 06:19 | 15.51185 | 108.03389 | 15988 ft | 393 kts | 350° |
| 2026-04-17 06:19 | 15.53943 | 108.02962 | 15553 ft | 389 kts | 351° |
| 2026-04-17 06:19 | 15.56631 | 108.02560 | 15082 ft | 386 kts | 351° |
| 2026-04-17 06:19 | 15.59303 | 108.02168 | 14592 ft | 383 kts | 351° |
| 2026-04-17 06:20 | 15.61995 | 108.01779 | 14259 ft | 375 kts | 351° |
| 2026-04-17 06:20 | 15.64534 | 108.01412 | 14202 ft | 360 kts | 351° |
| 2026-04-17 06:20 | 15.67001 | 108.01055 | 14131 ft | 345 kts | 351° |
| 2026-04-17 06:20 | 15.69339 | 108.00716 | 14076 ft | 332 kts | 351° |
| 2026-04-17 06:21 | 15.71573 | 108.00411 | 13957 ft | 320 kts | 355° |
| 2026-04-17 06:21 | 15.73736 | 108.00704 | 13799 ft | 309 kts | 24° |
| 2026-04-17 06:21 | 15.75425 | 108.02021 | 13559 ft | 302 kts | 54° |
| 2026-04-17 06:21 | 15.76226 | 108.03989 | 13180 ft | 298 kts | 83° |
| 2026-04-17 06:22 | 15.76351 | 108.06105 | 12870 ft | 295 kts | 89° |
| 2026-04-17 06:22 | 15.76416 | 108.08244 | 12503 ft | 294 kts | 89° |
| 2026-04-17 06:22 | 15.76063 | 108.10305 | 12078 ft | 294 kts | 117° |
| 2026-04-17 06:22 | 15.74750 | 108.11871 | 11689 ft | 292 kts | 148° |
| 2026-04-17 06:23 | 15.72851 | 108.12569 | 11342 ft | 288 kts | 173° |
| 2026-04-17 06:23 | 15.70823 | 108.12776 | 11022 ft | 286 kts | 174° |
| 2026-04-17 06:23 | 15.68845 | 108.13009 | 10708 ft | 283 kts | 173° |
| 2026-04-17 06:23 | 15.66872 | 108.13271 | 10383 ft | 281 kts | 172° |
| 2026-04-17 06:24 | 15.64894 | 108.13550 | 10064 ft | 280 kts | 171° |
| 2026-04-17 06:24 | 15.62945 | 108.13871 | 9708 ft | 279 kts | 163° |
| 2026-04-17 06:24 | 15.61288 | 108.14850 | 9324 ft | 274 kts | 129° |
| 2026-04-17 06:24 | 15.60464 | 108.16603 | 9011 ft | 267 kts | 95° |
| 2026-04-17 06:25 | 15.60581 | 108.18510 | 8703 ft | 264 kts | 77° |
| 2026-04-17 06:25 | 15.60927 | 108.20401 | 8376 ft | 263 kts | 78° |
| 2026-04-17 06:25 | 15.61226 | 108.22258 | 8051 ft | 262 kts | 79° |
| 2026-04-17 06:25 | 15.61649 | 108.24110 | 7676 ft | 260 kts | 61° |
| 2026-04-17 06:26 | 15.62854 | 108.25447 | 7333 ft | 255 kts | 27° |
| 2026-04-17 06:26 | 15.64558 | 108.25906 | 6983 ft | 256 kts | 358° |
| 2026-04-17 06:26 | 15.66215 | 108.25656 | 6676 ft | 256 kts | 349° |
| 2026-04-17 06:26 | 15.67983 | 108.25284 | 6336 ft | 255 kts | 349° |
| 2026-04-17 06:27 | 15.69750 | 108.24934 | 6006 ft | 254 kts | 351° |
| 2026-04-17 06:27 | 15.71479 | 108.24626 | 5685 ft | 253 kts | 352° |
| 2026-04-17 06:27 | 15.73226 | 108.24342 | 5371 ft | 252 kts | 352° |
| 2026-04-17 06:27 | 15.74976 | 108.24075 | 5077 ft | 252 kts | 353° |
| 2026-04-17 06:28 | 15.76543 | 108.23845 | 4805 ft | 251 kts | 353° |
| 2026-04-17 06:28 | 15.78301 | 108.23592 | 4531 ft | 250 kts | 353° |
| 2026-04-17 06:28 | 15.80041 | 108.23345 | 4268 ft | 251 kts | 353° |
| 2026-04-17 06:28 | 15.81774 | 108.23099 | 3961 ft | 251 kts | 354° |
| 2026-04-17 06:29 | 15.83503 | 108.22852 | 3648 ft | 250 kts | 354° |
| 2026-04-17 06:29 | 15.85242 | 108.22604 | 3330 ft | 248 kts | 354° |
| 2026-04-17 06:29 | 15.86950 | 108.22358 | 3010 ft | 243 kts | 354° |
| 2026-04-17 06:29 | 15.88603 | 108.22119 | 2702 ft | 233 kts | 354° |
| 2026-04-17 06:30 | 15.90174 | 108.21892 | 2418 ft | 227 kts | 354° |
| 2026-04-17 06:30 | 15.91741 | 108.21666 | 2202 ft | 220 kts | 355° |
| 2026-04-17 06:30 | 15.93214 | 108.21452 | 1954 ft | 211 kts | 355° |
| 2026-04-17 06:30 | 15.94656 | 108.21243 | 1646 ft | 201 kts | 355° |
| 2026-04-17 06:31 | 15.96001 | 108.21047 | 1400 ft | 185 kts | 355° |
| 2026-04-17 06:31 | 15.97236 | 108.20869 | 1147 ft | 171 kts | 356° |
| 2026-04-17 06:31 | 15.98372 | 108.20704 | 909 ft | 156 kts | 356° |
| 2026-04-17 06:31 | 15.99438 | 108.20550 | 733 ft | 153 kts | 356° |
| 2026-04-17 06:32 | 16.00504 | 108.20400 | 540 ft | 154 kts | 355° |
| 2026-04-17 06:32 | 16.01555 | 108.20249 | 359 ft | 152 kts | 355° |
| 2026-04-17 06:32 | 16.02614 | 108.20100 | 167 ft | 154 kts | 354° |
| 2026-04-17 06:32 | 16.03682 | 108.19938 | 63 ft | 144 kts | 354° |
| 2026-04-17 06:33 | 16.04546 | 108.19814 | 60 ft | 101 kts | 353° |
| 2026-04-17 06:33 | 16.05091 | 108.19737 | 57 ft | 63 kts | 353° |
| 2026-04-17 06:33 | 16.05495 | 108.19677 | 57 ft | 52 kts | 349° |
| 2026-04-17 06:33 | 16.05697 | 108.19659 | 54 ft | 17 kts | 26° |
| 2026-04-17 06:34 | 16.05733 | 108.19772 | 53 ft | 16 kts | 84° |
| 2026-04-17 06:34 | 16.05746 | 108.19892 | 51 ft | 17 kts | 79° |
| 2026-04-17 06:34 | 16.05720 | 108.19985 | 49 ft | 14 kts | 165° |
| 2026-04-17 06:34 | 16.05622 | 108.20001 | 49 ft | 14 kts | 171° |
| 2026-04-17 06:35 | 16.05523 | 108.20015 | 49 ft | 14 kts | 172° |
| 2026-04-17 06:35 | 16.05427 | 108.20029 | 50 ft | 13 kts | 172° |
| 2026-04-17 06:35 | 16.05395 | 108.20066 | 51 ft | 8 kts | 83° |
| 2026-04-17 06:35 | 16.05404 | 108.20126 | 51 ft | 8 kts | 82° |
| 2026-04-17 06:36 | 16.05409 | 108.20161 | 50 ft | 0 kts | 82° |
| 2026-04-17 06:36 | 16.05409 | 108.20162 | 50 ft | 0 kts | 81° |